Time;durP1;ratioP1;P1;durP2;ratioP2;P2;SDS_P1;SDS_P2;PMS_P1;PMS_P2;Temp;Humidity;BMP_temperature;BMP_pressure;BME280_temperature;BME280_humidity;BME280_pressure;Samples;Min_cycle;Max_cycle;Signal;HPM_P1;HPM_P2
2022/03/12 00:01:31;;;;;;;2.50;1.85;;;;;;;;;;5119267;28;20256;-49
2022/03/12 00:03:59;;;;;;;2.50;1.95;;;;;;;;;;5119056;28;20198;-49
2022/03/12 00:06:26;;;;;;;2.10;1.90;;;;;;;;;;5118744;28;20263;-49
2022/03/12 00:08:54;;;;;;;2.15;1.95;;;;;;;;;;5118271;28;20222;-49
2022/03/12 00:11:22;;;;;;;3.17;2.25;;;;;;;;;;5118009;28;20198;-49
2022/03/12 00:13:52;;;;;;;2.10;1.95;;;;;;;;;;5118133;28;20222;-49
2022/03/12 00:16:23;;;;;;;2.50;1.95;;;;;;;;;;5118846;28;20203;-49
2022/03/12 00:18:52;;;;;;;2.53;2.10;;;;;;;;;;5117419;28;20301;-49
2022/03/12 00:21:21;;;;;;;2.33;2.00;;;;;;;;;;5118343;28;20242;-49
2022/03/12 00:23:50;;;;;;;2.50;2.30;;;;;;;;;;5118705;28;20207;-49
2022/03/12 00:26:18;;;;;;;1.98;1.88;;;;;;;;;;5117659;28;20211;-49
2022/03/12 00:28:45;;;;;;;2.70;2.00;;;;;;;;;;5117631;28;20592;-49
2022/03/12 00:31:14;;;;;;;1.98;1.83;;;;;;;;;;5118213;28;20530;-49
2022/03/12 00:33:41;;;;;;;2.20;2.00;;;;;;;;;;5117576;28;20219;-49
2022/03/12 00:36:09;;;;;;;2.13;1.92;;;;;;;;;;5118968;28;20455;-49
2022/03/12 00:38:37;;;;;;;1.88;1.70;;;;;;;;;;5118003;28;20209;-49
2022/03/12 00:41:05;;;;;;;2.08;1.83;;;;;;;;;;5118177;28;20642;-49
2022/03/12 00:43:32;;;;;;;2.72;2.05;;;;;;;;;;5118623;28;20506;-49
2022/03/12 00:46:00;;;;;;;2.55;1.90;;;;;;;;;;5117902;28;20203;-49
2022/03/12 00:48:28;;;;;;;2.30;2.10;;;;;;;;;;5118367;28;20203;-49
2022/03/12 00:50:56;;;;;;;2.38;2.17;;;;;;;;;;5118321;28;20297;-49
2022/03/12 00:53:23;;;;;;;2.45;1.95;;;;;;;;;;5117733;28;20263;-49
2022/03/12 00:55:51;;;;;;;2.63;2.00;;;;;;;;;;5117987;28;20239;-50
2022/03/12 00:58:18;;;;;;;2.45;2.05;;;;;;;;;;5118142;28;20296;-50
2022/03/12 01:00:45;;;;;;;2.20;2.00;;;;;;;;;;5117582;28;20195;-50
2022/03/12 01:03:13;;;;;;;2.30;2.10;;;;;;;;;;5117774;28;20582;-49
2022/03/12 01:05:44;;;;;;;2.45;2.08;;;;;;;;;;5117911;28;20213;-49
2022/03/12 01:08:12;;;;;;;2.10;1.90;;;;;;;;;;5116574;28;20226;-49
2022/03/12 01:10:39;;;;;;;2.05;1.85;;;;;;;;;;5118261;28;20203;-49
2022/03/12 01:13:06;;;;;;;2.20;2.00;;;;;;;;;;5117417;28;20217;-50
2022/03/12 01:15:34;;;;;;;2.30;1.95;;;;;;;;;;5117098;28;20223;-50
2022/03/12 01:18:02;;;;;;;2.10;1.90;;;;;;;;;;5117768;28;20206;-50
2022/03/12 01:20:29;;;;;;;1.73;1.63;;;;;;;;;;5117263;28;20202;-50
2022/03/12 01:22:58;;;;;;;1.92;1.83;;;;;;;;;;5117356;28;20203;-50
2022/03/12 01:25:27;;;;;;;2.20;1.95;;;;;;;;;;5117171;28;20207;-50
2022/03/12 01:27:54;;;;;;;2.33;2.10;;;;;;;;;;5117247;28;20286;-49
2022/03/12 01:30:28;;;;;;;2.25;1.90;;;;;;;;;;5117374;28;20202;-50
2022/03/12 01:32:56;;;;;;;2.58;1.95;;;;;;;;;;5116733;28;20250;-50
2022/03/12 01:35:24;;;;;;;2.38;2.08;;;;;;;;;;5117380;28;20258;-50
2022/03/12 01:37:52;;;;;;;2.40;2.20;;;;;;;;;;5116968;28;20207;-50
2022/03/12 01:40:21;;;;;;;2.40;2.20;;;;;;;;;;5117746;28;20203;-49
2022/03/12 01:42:48;;;;;;;2.35;2.10;;;;;;;;;;5116516;28;20222;-49
2022/03/12 01:45:26;;;;;;;2.20;2.00;;;;;;;;;;5117208;28;20221;-49
2022/03/12 01:47:55;;;;;;;2.30;2.10;;;;;;;;;;5116917;28;20270;-49
2022/03/12 01:50:25;;;;;;;2.20;2.00;;;;;;;;;;5116728;28;20277;-49
2022/03/12 01:52:52;;;;;;;2.08;1.90;;;;;;;;;;5116646;28;20207;-49
2022/03/12 01:55:22;;;;;;;2.60;2.10;;;;;;;;;;5116388;28;20685;-49
2022/03/12 01:57:50;;;;;;;2.08;1.88;;;;;;;;;;5116478;28;20337;-49
2022/03/12 02:00:23;;;;;;;1.88;1.73;;;;;;;;;;5116419;28;20203;-49
2022/03/12 02:02:54;;;;;;;2.10;1.90;;;;;;;;;;5116971;28;20488;-49
2022/03/12 02:05:22;;;;;;;2.05;1.80;;;;;;;;;;5116580;28;20585;-49
2022/03/12 02:07:49;;;;;;;1.90;1.80;;;;;;;;;;5116903;28;20291;-49
2022/03/12 02:10:20;;;;;;;2.75;2.17;;;;;;;;;;5116981;28;20203;-50
2022/03/12 02:12:49;;;;;;;2.22;2.03;;;;;;;;;;5116941;28;20211;-50
2022/03/12 02:15:20;;;;;;;2.28;2.08;;;;;;;;;;5116489;28;20223;-50
2022/03/12 02:17:48;;;;;;;1.70;1.60;;;;;;;;;;5116507;28;20203;-50
2022/03/12 02:20:17;;;;;;;2.13;1.92;;;;;;;;;;5116729;28;20203;-50
2022/03/12 02:22:45;;;;;;;2.10;1.90;;;;;;;;;;5115913;28;20207;-49
2022/03/12 02:25:14;;;;;;;2.00;1.80;;;;;;;;;;5116890;28;20241;-50
2022/03/12 02:27:42;;;;;;;1.75;1.65;;;;;;;;;;5117007;28;20211;-49
2022/03/12 02:30:10;;;;;;;2.25;2.00;;;;;;;;;;5116584;28;20201;-49
2022/03/12 02:32:38;;;;;;;2.05;1.88;;;;;;;;;;5116165;28;20207;-49
2022/03/12 02:35:10;;;;;;;1.90;1.80;;;;;;;;;;5117191;28;20504;-49
2022/03/12 02:37:41;;;;;;;1.80;1.65;;;;;;;;;;5116358;28;20570;-49
2022/03/12 02:40:10;;;;;;;2.35;2.08;;;;;;;;;;5116418;28;20249;-49
2022/03/12 02:42:40;;;;;;;1.83;1.73;;;;;;;;;;5116062;28;20216;-49
2022/03/12 02:45:08;;;;;;;2.10;1.90;;;;;;;;;;5115918;28;20199;-50
2022/03/12 02:47:36;;;;;;;2.10;1.80;;;;;;;;;;5116321;28;20271;-50
2022/03/12 02:50:06;;;;;;;2.00;1.80;;;;;;;;;;5115465;28;20621;-49
2022/03/12 02:52:36;;;;;;;1.80;1.70;;;;;;;;;;5116099;28;20211;-49
2022/03/12 02:55:04;;;;;;;1.90;1.70;;;;;;;;;;5115519;28;20380;-49
2022/03/12 02:57:31;;;;;;;1.83;1.73;;;;;;;;;;5115753;28;20231;-50
2022/03/12 03:00:04;;;;;;;1.85;1.45;;;;;;;;;;5115306;28;20234;-50
2022/03/12 03:02:39;;;;;;;2.05;1.55;;;;;;;;;;5116148;28;20203;-49
2022/03/12 03:05:07;;;;;;;2.03;1.85;;;;;;;;;;5115621;28;20691;-49
2022/03/12 03:07:35;;;;;;;1.80;1.63;;;;;;;;;;5116198;28;20243;-49
2022/03/12 03:10:03;;;;;;;1.73;1.63;;;;;;;;;;5115668;28;20203;-49
2022/03/12 03:12:31;;;;;;;2.25;1.80;;;;;;;;;;5115666;28;20211;-49
2022/03/12 03:14:58;;;;;;;1.90;1.80;;;;;;;;;;5115556;28;20232;-49
2022/03/12 03:17:28;;;;;;;2.08;1.88;;;;;;;;;;5116358;28;20219;-49
2022/03/12 03:19:55;;;;;;;2.10;1.88;;;;;;;;;;5116449;28;20229;-49
2022/03/12 03:22:23;;;;;;;1.80;1.70;;;;;;;;;;5114945;28;20215;-49
2022/03/12 03:24:51;;;;;;;2.00;1.80;;;;;;;;;;5114974;28;20615;-49
2022/03/12 03:27:18;;;;;;;1.90;1.80;;;;;;;;;;5115661;28;20203;-49
2022/03/12 03:29:45;;;;;;;1.73;1.63;;;;;;;;;;5114492;28;20209;-49
2022/03/12 03:32:13;;;;;;;1.90;1.80;;;;;;;;;;5115595;28;20225;-49
2022/03/12 03:34:41;;;;;;;1.77;1.67;;;;;;;;;;5115545;28;20243;-49
2022/03/12 03:37:09;;;;;;;2.03;1.83;;;;;;;;;;5115906;28;20215;-49
2022/03/12 03:39:36;;;;;;;1.70;1.60;;;;;;;;;;5115236;28;20218;-49
2022/03/12 03:42:04;;;;;;;1.80;1.67;;;;;;;;;;5115854;28;20493;-49
2022/03/12 03:44:31;;;;;;;1.80;1.67;;;;;;;;;;5116099;28;20215;-49
2022/03/12 03:46:59;;;;;;;1.60;1.50;;;;;;;;;;5116571;28;20507;-49
2022/03/12 03:49:26;;;;;;;1.73;1.63;;;;;;;;;;5115634;28;20206;-49
2022/03/12 03:51:58;;;;;;;1.60;1.50;;;;;;;;;;5115664;28;20229;-50
2022/03/12 03:54:26;;;;;;;1.63;1.52;;;;;;;;;;5115477;28;20267;-50
2022/03/12 03:56:54;;;;;;;1.73;1.63;;;;;;;;;;5116354;28;20242;-50
2022/03/12 03:59:21;;;;;;;1.77;1.67;;;;;;;;;;5115978;28;20195;-49
2022/03/12 04:01:50;;;;;;;1.83;1.73;;;;;;;;;;5116795;28;20195;-50
2022/03/12 04:04:18;;;;;;;1.88;1.67;;;;;;;;;;5116884;28;20203;-50
2022/03/12 04:06:45;;;;;;;1.60;1.50;;;;;;;;;;5116228;28;20253;-49
2022/03/12 04:09:14;;;;;;;1.70;1.50;;;;;;;;;;5115899;28;20217;-50
2022/03/12 04:11:43;;;;;;;1.80;1.70;;;;;;;;;;5116739;28;20203;-50
2022/03/12 04:14:10;;;;;;;1.80;1.70;;;;;;;;;;5116455;28;20211;-50
2022/03/12 04:16:38;;;;;;;1.80;1.70;;;;;;;;;;5116764;28;20292;-49
2022/03/12 04:19:07;;;;;;;1.98;1.67;;;;;;;;;;5116218;28;20289;-50
2022/03/12 04:21:34;;;;;;;1.45;1.35;;;;;;;;;;5116288;28;20785;-50
2022/03/12 04:24:02;;;;;;;1.80;1.70;;;;;;;;;;5117761;28;20207;-50
2022/03/12 04:26:35;;;;;;;1.80;1.60;;;;;;;;;;5116257;28;20218;-49
2022/03/12 04:29:02;;;;;;;1.63;1.52;;;;;;;;;;5116507;28;20203;-50
2022/03/12 04:31:30;;;;;;;1.85;1.70;;;;;;;;;;5116604;28;20198;-49
2022/03/12 04:33:59;;;;;;;1.73;1.48;;;;;;;;;;5116023;28;20197;-49
2022/03/12 04:36:26;;;;;;;1.88;1.60;;;;;;;;;;5116009;28;20298;-50
2022/03/12 04:38:54;;;;;;;1.98;1.77;;;;;;;;;;5116444;28;20203;-50
2022/03/12 04:41:21;;;;;;;1.70;1.60;;;;;;;;;;5116006;28;20663;-50
2022/03/12 04:43:51;;;;;;;1.60;1.50;;;;;;;;;;5120084;28;20203;-49
2022/03/12 04:46:19;;;;;;;1.80;1.70;;;;;;;;;;5120062;28;20239;-49
2022/03/12 04:48:46;;;;;;;1.63;1.52;;;;;;;;;;5120003;28;20207;-50
2022/03/12 04:51:15;;;;;;;1.95;1.70;;;;;;;;;;5119693;28;20217;-50
2022/03/12 04:53:43;;;;;;;2.00;1.80;;;;;;;;;;5118487;28;20206;-49
2022/03/12 04:56:10;;;;;;;2.03;1.73;;;;;;;;;;5119205;28;20235;-49
2022/03/12 04:58:37;;;;;;;1.63;1.52;;;;;;;;;;5119659;28;20502;-49
2022/03/12 05:01:07;;;;;;;1.98;1.77;;;;;;;;;;5119588;28;20211;-49
2022/03/12 05:03:34;;;;;;;2.25;1.63;;;;;;;;;;5119061;28;20217;-50
2022/03/12 05:06:02;;;;;;;1.50;1.40;;;;;;;;;;5119426;28;20199;-50
2022/03/12 05:08:35;;;;;;;1.67;1.58;;;;;;;;;;5119491;28;20211;-50
2022/03/12 05:11:02;;;;;;;1.77;1.67;;;;;;;;;;5119663;28;20569;-49
2022/03/12 05:13:30;;;;;;;1.90;1.80;;;;;;;;;;5119300;28;20211;-49
2022/03/12 05:16:01;;;;;;;1.58;1.48;;;;;;;;;;5118804;28;20218;-49
2022/03/12 05:18:30;;;;;;;1.52;1.42;;;;;;;;;;5119352;28;20217;-50
2022/03/12 05:20:58;;;;;;;1.70;1.60;;;;;;;;;;5119305;28;20218;-50
2022/03/12 05:23:25;;;;;;;1.70;1.60;;;;;;;;;;5119171;28;20203;-50
2022/03/12 05:25:53;;;;;;;1.55;1.45;;;;;;;;;;5119312;28;20199;-50
2022/03/12 05:28:23;;;;;;;1.67;1.58;;;;;;;;;;5118891;28;20207;-50
2022/03/12 05:30:51;;;;;;;1.63;1.52;;;;;;;;;;5119508;28;20320;-50
2022/03/12 05:33:19;;;;;;;1.65;1.55;;;;;;;;;;5119198;28;20202;-49
2022/03/12 05:35:51;;;;;;;1.83;1.65;;;;;;;;;;5118426;28;20261;-49
2022/03/12 05:38:19;;;;;;;1.52;1.42;;;;;;;;;;5118767;28;20260;-49
2022/03/12 05:40:48;;;;;;;2.00;1.80;;;;;;;;;;5118913;28;20210;-49
2022/03/12 05:43:15;;;;;;;2.38;1.48;;;;;;;;;;5118574;28;20199;-49
2022/03/12 05:45:45;;;;;;;2.17;1.98;;;;;;;;;;5118124;28;20198;-50
2022/03/12 05:48:13;;;;;;;1.80;1.70;;;;;;;;;;5118818;28;20207;-50
2022/03/12 05:50:41;;;;;;;2.38;1.80;;;;;;;;;;5118919;28;20549;-49
2022/03/12 05:53:10;;;;;;;1.70;1.58;;;;;;;;;;5118488;28;20281;-49
2022/03/12 05:55:39;;;;;;;1.70;1.60;;;;;;;;;;5118294;28;20569;-50
2022/03/12 05:58:07;;;;;;;1.83;1.73;;;;;;;;;;5118523;28;20217;-49
2022/03/12 06:00:34;;;;;;;1.80;1.55;;;;;;;;;;5118408;28;20217;-49
2022/03/12 06:03:02;;;;;;;1.63;1.52;;;;;;;;;;5118367;28;20210;-50
2022/03/12 06:05:31;;;;;;;1.60;1.50;;;;;;;;;;5118961;28;20226;-50
2022/03/12 06:07:59;;;;;;;1.70;1.60;;;;;;;;;;5118210;28;20214;-50
2022/03/12 06:10:30;;;;;;;1.60;1.50;;;;;;;;;;5117969;28;20210;-49
2022/03/12 06:12:58;;;;;;;1.60;1.50;;;;;;;;;;5117728;28;20234;-49
2022/03/12 06:15:26;;;;;;;1.90;1.80;;;;;;;;;;5118070;28;20195;-49
2022/03/12 06:17:53;;;;;;;1.77;1.65;;;;;;;;;;5117974;28;20210;-50
2022/03/12 06:20:21;;;;;;;2.03;1.73;;;;;;;;;;5117773;28;20202;-50
2022/03/12 06:22:49;;;;;;;2.05;1.63;;;;;;;;;;5117940;28;20203;-49
2022/03/12 06:25:18;;;;;;;1.40;1.30;;;;;;;;;;5117896;28;20213;-49
2022/03/12 06:27:54;;;;;;;1.58;1.35;;;;;;;;;;5118029;28;20467;-49
2022/03/12 06:30:22;;;;;;;1.35;1.27;;;;;;;;;;5117958;28;20535;-49
2022/03/12 06:32:50;;;;;;;1.70;1.60;;;;;;;;;;5117776;28;20225;-49
2022/03/12 06:35:17;;;;;;;1.73;1.63;;;;;;;;;;5117282;28;20203;-49
2022/03/12 06:37:45;;;;;;;2.05;1.52;;;;;;;;;;5117394;28;20209;-49
2022/03/12 06:40:14;;;;;;;1.50;1.40;;;;;;;;;;5117147;28;20230;-49
2022/03/12 06:42:42;;;;;;;1.70;1.60;;;;;;;;;;5117734;28;20253;-49
2022/03/12 06:45:15;;;;;;;1.90;1.80;;;;;;;;;;5116605;28;20207;-50
2022/03/12 06:47:44;;;;;;;1.77;1.67;;;;;;;;;;5116712;28;20207;-49
2022/03/12 06:50:13;;;;;;;1.70;1.60;;;;;;;;;;5116556;28;20214;-49
2022/03/12 06:52:43;;;;;;;1.65;1.55;;;;;;;;;;5116550;28;20207;-49
2022/03/12 06:55:10;;;;;;;1.83;1.70;;;;;;;;;;5116850;28;20586;-50
2022/03/12 06:57:38;;;;;;;1.60;1.50;;;;;;;;;;5117028;28;20238;-50
2022/03/12 07:00:06;;;;;;;1.92;1.83;;;;;;;;;;5116382;28;20203;-49
2022/03/12 07:02:35;;;;;;;1.60;1.50;;;;;;;;;;5116647;28;20203;-50
2022/03/12 07:05:03;;;;;;;1.48;1.38;;;;;;;;;;5115642;28;20210;-49
2022/03/12 07:07:30;;;;;;;1.58;1.48;;;;;;;;;;5116518;28;20232;-50
2022/03/12 07:09:58;;;;;;;1.95;1.83;;;;;;;;;;5115902;28;20365;-50
2022/03/12 07:12:26;;;;;;;2.25;2.05;;;;;;;;;;5116447;28;20574;-50
2022/03/12 07:14:53;;;;;;;1.60;1.50;;;;;;;;;;5115994;28;20203;-49
2022/03/12 07:17:21;;;;;;;2.05;1.50;;;;;;;;;;5116054;28;20497;-50
2022/03/12 07:19:50;;;;;;;2.05;1.88;;;;;;;;;;5116153;28;20203;-50
2022/03/12 07:22:18;;;;;;;1.85;1.60;;;;;;;;;;5115805;28;20210;-50
2022/03/12 07:24:45;;;;;;;1.95;1.80;;;;;;;;;;5116465;28;20226;-50
2022/03/12 07:27:14;;;;;;;1.92;1.77;;;;;;;;;;5116110;28;20201;-50
2022/03/12 07:29:41;;;;;;;1.92;1.73;;;;;;;;;;5115838;28;20459;-50
2022/03/12 07:32:10;;;;;;;1.67;1.58;;;;;;;;;;5115653;28;20245;-49
2022/03/12 07:34:37;;;;;;;1.80;1.70;;;;;;;;;;5115730;28;20301;-50
2022/03/12 07:37:08;;;;;;;2.03;1.88;;;;;;;;;;5115363;28;20219;-50
2022/03/12 07:39:36;;;;;;;1.80;1.65;;;;;;;;;;5115607;28;20553;-50
2022/03/12 07:42:03;;;;;;;1.70;1.60;;;;;;;;;;5116121;28;20202;-50
2022/03/12 07:44:31;;;;;;;2.00;1.88;;;;;;;;;;5115467;28;20600;-49
2022/03/12 07:46:59;;;;;;;1.80;1.63;;;;;;;;;;5115884;28;20210;-49
2022/03/12 07:49:28;;;;;;;1.63;1.50;;;;;;;;;;5115280;28;20203;-50
2022/03/12 07:51:55;;;;;;;1.70;1.60;;;;;;;;;;5115625;28;20199;-50
2022/03/12 07:54:24;;;;;;;1.85;1.63;;;;;;;;;;5115264;28;20213;-50
2022/03/12 07:56:52;;;;;;;2.08;1.90;;;;;;;;;;5114756;28;20253;-49
2022/03/12 07:59:20;;;;;;;2.05;1.88;;;;;;;;;;5114530;28;20222;-49
2022/03/12 08:01:47;;;;;;;2.00;1.80;;;;;;;;;;5115049;28;20578;-50
2022/03/12 08:04:15;;;;;;;2.13;1.92;;;;;;;;;;5115148;28;20458;-50
2022/03/12 08:06:43;;;;;;;2.10;1.90;;;;;;;;;;5115541;28;20234;-50
2022/03/12 08:09:11;;;;;;;1.80;1.63;;;;;;;;;;5114625;28;20211;-50
2022/03/12 08:11:40;;;;;;;1.95;1.70;;;;;;;;;;5114779;28;20203;-50
2022/03/12 08:14:08;;;;;;;2.30;1.92;;;;;;;;;;5114986;28;20211;-50
2022/03/12 08:16:37;;;;;;;2.00;1.80;;;;;;;;;;5117121;28;20227;-50
2022/03/12 08:19:05;;;;;;;1.98;1.77;;;;;;;;;;5119347;28;20358;-50
2022/03/12 08:21:33;;;;;;;2.45;2.03;;;;;;;;;;5119802;28;20582;-50
2022/03/12 08:24:02;;;;;;;2.20;2.00;;;;;;;;;;5118704;28;20209;-50
2022/03/12 08:26:30;;;;;;;3.97;1.95;;;;;;;;;;5118609;28;20211;-50
2022/03/12 08:28:59;;;;;;;1.70;1.60;;;;;;;;;;5118454;28;20211;-50
2022/03/12 08:31:26;;;;;;;2.30;1.70;;;;;;;;;;5118701;28;20199;-50
2022/03/12 08:33:54;;;;;;;2.45;2.08;;;;;;;;;;5118474;28;20211;-50
2022/03/12 08:36:22;;;;;;;2.30;1.60;;;;;;;;;;5118696;28;20215;-50
2022/03/12 08:38:50;;;;;;;2.05;1.80;;;;;;;;;;5118563;28;20203;-50
2022/03/12 08:41:21;;;;;;;1.70;1.60;;;;;;;;;;5115994;28;20264;-50
2022/03/12 08:43:49;;;;;;;2.45;2.00;;;;;;;;;;5117437;28;20238;-50
2022/03/12 08:46:18;;;;;;;1.70;1.60;;;;;;;;;;5117834;28;20203;-50
2022/03/12 08:48:45;;;;;;;2.72;1.63;;;;;;;;;;5117792;28;20203;-50
2022/03/12 08:51:13;;;;;;;2.83;1.60;;;;;;;;;;5116912;28;20268;-50
2022/03/12 08:53:40;;;;;;;2.00;1.80;;;;;;;;;;5117349;28;20207;-50
2022/03/12 08:56:08;;;;;;;2.20;2.00;;;;;;;;;;5116578;28;20629;-50
2022/03/12 08:58:37;;;;;;;4.32;2.40;;;;;;;;;;5116546;28;20659;-50
2022/03/12 09:01:06;;;;;;;2.47;1.85;;;;;;;;;;5117140;28;20544;-50
2022/03/12 09:03:35;;;;;;;2.83;1.85;;;;;;;;;;5116916;28;20202;-50
2022/03/12 09:06:03;;;;;;;2.65;1.52;;;;;;;;;;5117850;28;20203;-50
2022/03/12 09:08:31;;;;;;;2.55;1.83;;;;;;;;;;5116703;28;20211;-50
2022/03/12 09:10:59;;;;;;;2.15;1.90;;;;;;;;;;5117826;28;20322;-50
2022/03/12 09:13:27;;;;;;;2.63;2.08;;;;;;;;;;5115688;28;20294;-50
2022/03/12 09:15:54;;;;;;;3.50;1.90;;;;;;;;;;5116413;28;20228;-49
2022/03/12 09:18:22;;;;;;;2.58;1.85;;;;;;;;;;5116533;28;20645;-49
2022/03/12 09:20:51;;;;;;;2.47;1.83;;;;;;;;;;5117549;28;20211;-50
2022/03/12 09:23:19;;;;;;;2.42;1.85;;;;;;;;;;5116944;28;20350;-50
2022/03/12 09:25:47;;;;;;;2.20;2.00;;;;;;;;;;5116668;28;20202;-50
2022/03/12 09:28:15;;;;;;;2.00;1.80;;;;;;;;;;5116308;28;20199;-50
2022/03/12 09:30:42;;;;;;;2.78;2.13;;;;;;;;;;5117341;28;20638;-50
2022/03/12 09:33:10;;;;;;;3.17;2.08;;;;;;;;;;5117093;28;20203;-50
2022/03/12 09:35:38;;;;;;;5.68;2.30;;;;;;;;;;5116955;28;20210;-50
2022/03/12 09:38:06;;;;;;;4.03;2.13;;;;;;;;;;5116124;28;20226;-50
2022/03/12 09:40:35;;;;;;;3.15;2.10;;;;;;;;;;5116751;28;20371;-50
2022/03/12 09:43:03;;;;;;;2.90;1.95;;;;;;;;;;5117088;28;20230;-50
2022/03/12 09:45:30;;;;;;;4.55;2.15;;;;;;;;;;5116455;28;20468;-50
2022/03/12 09:47:58;;;;;;;2.53;2.28;;;;;;;;;;5116087;28;20484;-50
2022/03/12 09:50:25;;;;;;;2.15;1.92;;;;;;;;;;5115404;28;20498;-50
2022/03/12 09:52:53;;;;;;;2.00;1.80;;;;;;;;;;5115039;28;20203;-50
2022/03/12 09:55:22;;;;;;;2.63;1.92;;;;;;;;;;5115042;28;20233;-50
2022/03/12 09:57:50;;;;;;;2.67;1.88;;;;;;;;;;5114958;28;20646;-50
2022/03/12 10:00:19;;;;;;;2.38;1.95;;;;;;;;;;5115354;28;20590;-50
2022/03/12 10:02:46;;;;;;;3.50;2.13;;;;;;;;;;5115219;28;20290;-50
2022/03/12 10:05:14;;;;;;;2.55;1.90;;;;;;;;;;5115544;28;20207;-50
2022/03/12 10:07:42;;;;;;;2.63;1.70;;;;;;;;;;5115595;28;20199;-50
2022/03/12 10:10:13;;;;;;;2.15;1.70;;;;;;;;;;5115754;28;20210;-50
2022/03/12 10:12:42;;;;;;;2.35;2.00;;;;;;;;;;5114392;28;20207;-49
2022/03/12 10:15:11;;;;;;;2.15;1.77;;;;;;;;;;5115074;28;20212;-50
2022/03/12 10:17:38;;;;;;;4.32;2.00;;;;;;;;;;5115125;28;20284;-50
2022/03/12 10:20:08;;;;;;;2.30;2.10;;;;;;;;;;5115576;28;20213;-50
2022/03/12 10:22:35;;;;;;;2.17;1.95;;;;;;;;;;5115851;28;20203;-50
2022/03/12 10:25:03;;;;;;;2.53;1.90;;;;;;;;;;5115001;28;20210;-50
2022/03/12 10:27:30;;;;;;;2.22;1.80;;;;;;;;;;5114821;28;20202;-50
2022/03/12 10:29:59;;;;;;;2.83;2.10;;;;;;;;;;5113564;28;20203;-50
2022/03/12 10:32:28;;;;;;;2.13;1.73;;;;;;;;;;5113475;28;20194;-50
2022/03/12 10:34:56;;;;;;;2.05;1.77;;;;;;;;;;5114150;27;20546;-50
2022/03/12 10:37:24;;;;;;;1.88;1.73;;;;;;;;;;5113463;28;20218;-50
2022/03/12 10:40:03;;;;;;;2.55;2.03;;;;;;;;;;5113585;28;20211;-50
2022/03/12 10:42:31;;;;;;;2.50;2.28;;;;;;;;;;5113474;28;20207;-50
2022/03/12 10:45:07;;;;;;;3.38;2.20;;;;;;;;;;5113317;28;20648;-50
2022/03/12 10:47:41;;;;;;;2.42;2.13;;;;;;;;;;5114677;28;20195;-50
2022/03/12 10:50:11;;;;;;;2.30;1.90;;;;;;;;;;5115146;28;20294;-50
2022/03/12 10:52:45;;;;;;;2.90;1.80;;;;;;;;;;5115653;28;20203;-50
2022/03/12 10:55:17;;;;;;;2.35;1.70;;;;;;;;;;5114281;28;20203;-50
2022/03/12 10:57:59;;;;;;;2.75;2.10;;;;;;;;;;5114100;28;20231;-50
2022/03/12 11:00:29;;;;;;;1.90;1.70;;;;;;;;;;5111851;28;20209;-50
2022/03/12 11:02:58;;;;;;;2.30;1.90;;;;;;;;;;5114004;28;20202;-50
2022/03/12 11:05:26;;;;;;;1.85;1.65;;;;;;;;;;5116781;27;20266;-50
2022/03/12 11:07:54;;;;;;;1.80;1.70;;;;;;;;;;5136284;27;20539;-50
2022/03/12 11:10:33;;;;;;;2.17;1.92;;;;;;;;;;5136111;27;20544;-50
2022/03/12 11:13:03;;;;;;;2.70;1.88;;;;;;;;;;5135079;27;20473;-50
2022/03/12 11:15:33;;;;;;;2.65;1.70;;;;;;;;;;5134676;27;20194;-50
2022/03/12 11:18:05;;;;;;;2.70;1.92;;;;;;;;;;5135629;27;20222;-50
2022/03/12 11:20:36;;;;;;;3.08;1.85;;;;;;;;;;5133729;27;20198;-50
2022/03/12 11:23:08;;;;;;;1.60;1.50;;;;;;;;;;5134534;27;20773;-50
2022/03/12 11:25:37;;;;;;;2.88;2.22;;;;;;;;;;5133365;27;20244;-50
2022/03/12 11:28:18;;;;;;;2.25;2.03;;;;;;;;;;5134340;27;20248;-50
2022/03/12 11:30:47;;;;;;;2.13;1.92;;;;;;;;;;5133013;27;20553;-50
2022/03/12 11:33:15;;;;;;;3.45;2.28;;;;;;;;;;5134220;27;20601;-50
2022/03/12 11:35:45;;;;;;;2.10;1.90;;;;;;;;;;5133228;27;20210;-50
2022/03/12 11:38:13;;;;;;;2.58;1.90;;;;;;;;;;5132532;27;20584;-50
2022/03/12 11:40:44;;;;;;;3.13;2.10;;;;;;;;;;5132828;28;20206;-50
2022/03/12 11:43:22;;;;;;;2.15;1.88;;;;;;;;;;5131437;28;20208;-50
2022/03/12 11:45:51;;;;;;;2.33;1.80;;;;;;;;;;5130405;28;20293;-50
2022/03/12 11:48:19;;;;;;;2.03;1.83;;;;;;;;;;5133153;28;20198;-50
2022/03/12 11:50:46;;;;;;;2.28;1.80;;;;;;;;;;5133009;27;20202;-50
2022/03/12 11:53:17;;;;;;;2.60;2.00;;;;;;;;;;5136666;27;20207;-50
2022/03/12 11:55:48;;;;;;;3.03;1.95;;;;;;;;;;5136207;27;20198;-50
2022/03/12 11:58:16;;;;;;;3.42;1.75;;;;;;;;;;5136995;27;20585;-50
2022/03/12 12:00:46;;;;;;;2.30;2.10;;;;;;;;;;5136867;27;20267;-50
2022/03/12 12:03:16;;;;;;;2.60;1.95;;;;;;;;;;5137198;27;20264;-50
2022/03/12 12:05:45;;;;;;;2.63;1.85;;;;;;;;;;5135780;27;20308;-50
2022/03/12 12:08:13;;;;;;;2.25;2.05;;;;;;;;;;5136879;27;20199;-50
2022/03/12 12:10:42;;;;;;;3.20;2.03;;;;;;;;;;5138040;27;20294;-50
2022/03/12 12:13:09;;;;;;;2.20;2.00;;;;;;;;;;5136547;27;20455;-50
2022/03/12 12:15:39;;;;;;;2.33;2.10;;;;;;;;;;5137319;27;20197;-50
2022/03/12 12:18:08;;;;;;;2.47;1.90;;;;;;;;;;5137305;27;20304;-50
2022/03/12 12:20:37;;;;;;;2.60;2.10;;;;;;;;;;5137450;27;20565;-50
2022/03/12 12:23:06;;;;;;;3.08;2.00;;;;;;;;;;5136840;27;20536;-50
2022/03/12 12:25:34;;;;;;;2.35;2.00;;;;;;;;;;5137293;27;20206;-50
2022/03/12 12:28:02;;;;;;;2.50;1.90;;;;;;;;;;5137016;27;20560;-50
2022/03/12 12:30:38;;;;;;;2.45;2.17;;;;;;;;;;5137418;27;20202;-50
2022/03/12 12:33:15;;;;;;;2.60;2.10;;;;;;;;;;5135941;27;20228;-50
2022/03/12 12:35:44;;;;;;;3.28;2.00;;;;;;;;;;5125351;27;20198;-50
2022/03/12 12:38:12;;;;;;;2.50;1.80;;;;;;;;;;5115565;28;20253;-50
2022/03/12 12:40:47;;;;;;;2.78;2.22;;;;;;;;;;5117454;28;20578;-50
2022/03/12 12:43:18;;;;;;;2.67;2.08;;;;;;;;;;5117386;28;20206;-50
2022/03/12 12:46:01;;;;;;;4.32;2.00;;;;;;;;;;5109840;28;20209;-50
2022/03/12 12:48:29;;;;;;;4.80;2.17;;;;;;;;;;5117627;28;20570;-50
2022/03/12 12:51:08;;;;;;;2.95;2.20;;;;;;;;;;5117841;28;20206;-50
2022/03/12 12:53:38;;;;;;;2.40;2.20;;;;;;;;;;5116835;28;20202;-50
2022/03/12 12:56:36;;;;;;;2.58;1.98;;;;;;;;;;5120227;27;20587;-50
2022/03/12 12:59:11;;;;;;;4.28;2.33;;;;;;;;;;5135421;27;20257;-50
2022/03/12 13:01:49;;;;;;;3.38;2.47;;;;;;;;;;5136155;27;20194;-50
2022/03/12 13:04:19;;;;;;;3.00;2.10;;;;;;;;;;5136452;27;20213;-50
2022/03/12 13:06:49;;;;;;;4.85;2.22;;;;;;;;;;5136997;27;20283;-50
2022/03/12 13:09:18;;;;;;;3.80;2.30;;;;;;;;;;5136762;27;20198;-50
2022/03/12 13:11:53;;;;;;;13.98;2.58;;;;;;;;;;5136352;27;20635;-50
2022/03/12 13:14:21;;;;;;;6.10;2.20;;;;;;;;;;5136789;27;20213;-50
2022/03/12 13:16:50;;;;;;;4.68;2.60;;;;;;;;;;5137114;27;20209;-50
2022/03/12 13:19:40;;;;;;;5.13;2.30;;;;;;;;;;5137065;27;20320;-50
2022/03/12 13:22:09;;;;;;;4.90;2.35;;;;;;;;;;5137142;27;20289;-50
2022/03/12 13:24:43;;;;;;;4.28;2.17;;;;;;;;;;5136616;27;20646;-50
2022/03/12 13:27:17;;;;;;;3.20;2.50;;;;;;;;;;5135708;27;20213;-50
2022/03/12 13:29:44;;;;;;;5.30;2.05;;;;;;;;;;5135769;27;20227;-50
2022/03/12 13:32:18;;;;;;;3.05;2.00;;;;;;;;;;5135886;27;20206;-50
2022/03/12 13:34:45;;;;;;;3.72;2.25;;;;;;;;;;5136365;27;20198;-50
2022/03/12 13:37:14;;;;;;;4.60;2.20;;;;;;;;;;5136195;27;20573;-50
2022/03/12 13:39:42;;;;;;;3.50;2.05;;;;;;;;;;5136718;27;20714;-50
2022/03/12 13:42:09;;;;;;;4.05;2.42;;;;;;;;;;5135918;27;20280;-50
2022/03/12 13:44:37;;;;;;;2.55;2.22;;;;;;;;;;5136341;27;20198;-50
2022/03/12 13:47:05;;;;;;;2.55;2.10;;;;;;;;;;5135007;27;20252;-50
2022/03/12 13:49:35;;;;;;;3.33;2.17;;;;;;;;;;5136093;27;20735;-50
2022/03/12 13:52:03;;;;;;;4.05;2.10;;;;;;;;;;5135556;27;20210;-50
2022/03/12 13:54:32;;;;;;;2.63;2.20;;;;;;;;;;5135477;27;20198;-50
2022/03/12 13:57:00;;;;;;;2.75;1.90;;;;;;;;;;5136077;27;20241;-50
2022/03/12 13:59:30;;;;;;;4.25;2.70;;;;;;;;;;5135096;27;20257;-50
2022/03/12 14:02:01;;;;;;;2.42;2.20;;;;;;;;;;5116729;27;20672;-50
2022/03/12 14:04:29;;;;;;;3.22;2.33;;;;;;;;;;5135403;27;20202;-50
2022/03/12 14:06:56;;;;;;;3.10;2.30;;;;;;;;;;5136627;27;20198;-50
2022/03/12 14:09:25;;;;;;;3.55;2.33;;;;;;;;;;5136546;27;20284;-50
2022/03/12 14:11:56;;;;;;;2.60;2.10;;;;;;;;;;5136169;27;20237;-50
2022/03/12 14:14:25;;;;;;;4.18;2.17;;;;;;;;;;5136206;27;20601;-50
2022/03/12 14:16:55;;;;;;;3.13;2.25;;;;;;;;;;5135793;27;20519;-50
2022/03/12 14:19:24;;;;;;;3.65;2.50;;;;;;;;;;5135881;27;20764;-50
2022/03/12 14:21:56;;;;;;;4.10;2.45;;;;;;;;;;5135309;27;20195;-50
2022/03/12 14:24:24;;;;;;;2.97;2.28;;;;;;;;;;5135287;27;20209;-50
2022/03/12 14:26:52;;;;;;;4.13;2.40;;;;;;;;;;5136293;27;20202;-50
2022/03/12 14:29:23;;;;;;;3.15;2.47;;;;;;;;;;5135529;27;20191;-50
2022/03/12 14:31:51;;;;;;;2.35;2.15;;;;;;;;;;5136374;27;20198;-50
2022/03/12 14:34:19;;;;;;;2.90;2.45;;;;;;;;;;5135637;27;20259;-50
2022/03/12 14:36:46;;;;;;;4.65;2.78;;;;;;;;;;5135920;27;20681;-50
2022/03/12 14:39:16;;;;;;;2.50;2.30;;;;;;;;;;5136798;27;20719;-50
2022/03/12 14:41:44;;;;;;;2.85;2.17;;;;;;;;;;5136639;27;20194;-50
2022/03/12 14:44:12;;;;;;;4.07;2.53;;;;;;;;;;5136179;27;20229;-50
2022/03/12 14:46:46;;;;;;;2.60;2.30;;;;;;;;;;5136129;27;20198;-50
2022/03/12 14:49:20;;;;;;;2.40;2.20;;;;;;;;;;5135966;27;20191;-50
2022/03/12 14:51:54;;;;;;;3.30;2.38;;;;;;;;;;5135319;27;20209;-50
2022/03/12 14:54:25;;;;;;;2.50;2.30;;;;;;;;;;5135331;27;20267;-50